sensor_id;sensor_type;location;lat;lon;timestamp;P1;durP1;ratioP1;P2;durP2;ratioP2
72676;SDS011;60755;51.374;10.662;2022-10-31T00:01:16;11.90;;;3.87;;
72676;SDS011;60755;51.374;10.662;2022-10-31T00:03:43;9.63;;;4.07;;
72676;SDS011;60755;51.374;10.662;2022-10-31T00:06:10;5.30;;;3.63;;
72676;SDS011;60755;51.374;10.662;2022-10-31T00:08:36;8.87;;;3.67;;
72676;SDS011;60755;51.374;10.662;2022-10-31T00:11:03;4.93;;;3.50;;
72676;SDS011;60755;51.374;10.662;2022-10-31T00:13:32;9.43;;;3.60;;
72676;SDS011;60755;51.374;10.662;2022-10-31T00:16:03;7.47;;;3.53;;
72676;SDS011;60755;51.374;10.662;2022-10-31T00:18:32;8.97;;;3.70;;
72676;SDS011;60755;51.374;10.662;2022-10-31T00:20:59;10.77;;;4.30;;
72676;SDS011;60755;51.374;10.662;2022-10-31T00:23:26;4.97;;;3.77;;
72676;SDS011;60755;51.374;10.662;2022-10-31T00:25:59;6.90;;;3.80;;
72676;SDS011;60755;51.374;10.662;2022-10-31T00:28:34;9.00;;;3.83;;
72676;SDS011;60755;51.374;10.662;2022-10-31T00:31:06;6.03;;;3.90;;
72676;SDS011;60755;51.374;10.662;2022-10-31T00:33:34;8.43;;;4.17;;
72676;SDS011;60755;51.374;10.662;2022-10-31T00:36:03;9.93;;;3.60;;
72676;SDS011;60755;51.374;10.662;2022-10-31T00:38:30;6.70;;;3.80;;
72676;SDS011;60755;51.374;10.662;2022-10-31T00:40:57;7.00;;;3.73;;
72676;SDS011;60755;51.374;10.662;2022-10-31T00:43:23;7.47;;;4.13;;
72676;SDS011;60755;51.374;10.662;2022-10-31T00:45:53;11.03;;;4.40;;
72676;SDS011;60755;51.374;10.662;2022-10-31T00:48:24;10.97;;;4.30;;
72676;SDS011;60755;51.374;10.662;2022-10-31T00:50:54;7.23;;;4.50;;
72676;SDS011;60755;51.374;10.662;2022-10-31T00:53:22;6.13;;;4.40;;
72676;SDS011;60755;51.374;10.662;2022-10-31T00:55:51;9.23;;;4.13;;
72676;SDS011;60755;51.374;10.662;2022-10-31T00:58:18;7.57;;;4.40;;
72676;SDS011;60755;51.374;10.662;2022-10-31T01:00:46;6.87;;;4.10;;
72676;SDS011;60755;51.374;10.662;2022-10-31T01:03:21;6.77;;;4.13;;
72676;SDS011;60755;51.374;10.662;2022-10-31T01:05:59;8.03;;;4.10;;
72676;SDS011;60755;51.374;10.662;2022-10-31T01:08:31;5.03;;;3.77;;
72676;SDS011;60755;51.374;10.662;2022-10-31T01:11:03;7.17;;;4.33;;
72676;SDS011;60755;51.374;10.662;2022-10-31T01:13:35;5.60;;;4.00;;
72676;SDS011;60755;51.374;10.662;2022-10-31T01:16:06;9.40;;;4.27;;
72676;SDS011;60755;51.374;10.662;2022-10-31T01:18:38;6.83;;;3.93;;
72676;SDS011;60755;51.374;10.662;2022-10-31T01:21:10;8.67;;;4.33;;
72676;SDS011;60755;51.374;10.662;2022-10-31T01:23:38;9.83;;;4.30;;
72676;SDS011;60755;51.374;10.662;2022-10-31T01:26:06;5.13;;;4.00;;
72676;SDS011;60755;51.374;10.662;2022-10-31T01:28:35;5.50;;;3.70;;
72676;SDS011;60755;51.374;10.662;2022-10-31T01:31:03;7.13;;;4.30;;
72676;SDS011;60755;51.374;10.662;2022-10-31T01:33:31;8.20;;;4.40;;
72676;SDS011;60755;51.374;10.662;2022-10-31T01:35:59;9.70;;;4.23;;
72676;SDS011;60755;51.374;10.662;2022-10-31T01:38:26;8.00;;;4.47;;
72676;SDS011;60755;51.374;10.662;2022-10-31T01:40:53;7.60;;;4.17;;
72676;SDS011;60755;51.374;10.662;2022-10-31T01:43:20;5.13;;;4.40;;
72676;SDS011;60755;51.374;10.662;2022-10-31T01:45:48;6.50;;;3.80;;
72676;SDS011;60755;51.374;10.662;2022-10-31T01:48:19;11.90;;;3.87;;
72676;SDS011;60755;51.374;10.662;2022-10-31T01:50:48;6.23;;;4.03;;
72676;SDS011;60755;51.374;10.662;2022-10-31T01:53:21;10.23;;;5.07;;
72676;SDS011;60755;51.374;10.662;2022-10-31T01:55:49;7.37;;;4.10;;
72676;SDS011;60755;51.374;10.662;2022-10-31T01:58:16;9.60;;;4.83;;
72676;SDS011;60755;51.374;10.662;2022-10-31T02:00:48;5.20;;;3.97;;
72676;SDS011;60755;51.374;10.662;2022-10-31T02:03:21;6.63;;;4.00;;
72676;SDS011;60755;51.374;10.662;2022-10-31T02:05:49;6.87;;;3.93;;
72676;SDS011;60755;51.374;10.662;2022-10-31T02:08:19;8.63;;;4.90;;
72676;SDS011;60755;51.374;10.662;2022-10-31T02:10:55;9.20;;;4.53;;
72676;SDS011;60755;51.374;10.662;2022-10-31T02:13:23;9.00;;;5.10;;
72676;SDS011;60755;51.374;10.662;2022-10-31T02:15:52;10.80;;;4.43;;
72676;SDS011;60755;51.374;10.662;2022-10-31T02:18:20;6.03;;;4.43;;
72676;SDS011;60755;51.374;10.662;2022-10-31T02:20:51;11.50;;;4.83;;
72676;SDS011;60755;51.374;10.662;2022-10-31T02:23:33;5.73;;;4.53;;
72676;SDS011;60755;51.374;10.662;2022-10-31T02:29:16;8.40;;;4.87;;
72676;SDS011;60755;51.374;10.662;2022-10-31T02:32:06;20.30;;;5.37;;
72676;SDS011;60755;51.374;10.662;2022-10-31T02:34:40;6.27;;;4.60;;
72676;SDS011;60755;51.374;10.662;2022-10-31T02:37:13;11.70;;;5.07;;
72676;SDS011;60755;51.374;10.662;2022-10-31T02:39:46;6.63;;;4.20;;
72676;SDS011;60755;51.374;10.662;2022-10-31T02:42:22;11.07;;;4.67;;
72676;SDS011;60755;51.374;10.662;2022-10-31T02:44:58;13.77;;;5.10;;
72676;SDS011;60755;51.374;10.662;2022-10-31T02:47:33;7.17;;;5.07;;
72676;SDS011;60755;51.374;10.662;2022-10-31T02:50:03;8.17;;;4.67;;
72676;SDS011;60755;51.374;10.662;2022-10-31T02:52:35;8.13;;;4.77;;
72676;SDS011;60755;51.374;10.662;2022-10-31T02:55:09;7.60;;;5.00;;
72676;SDS011;60755;51.374;10.662;2022-10-31T02:57:36;10.47;;;5.30;;
72676;SDS011;60755;51.374;10.662;2022-10-31T03:00:06;13.07;;;5.43;;
72676;SDS011;60755;51.374;10.662;2022-10-31T03:02:41;13.63;;;5.30;;
72676;SDS011;60755;51.374;10.662;2022-10-31T03:05:27;10.60;;;5.67;;
72676;SDS011;60755;51.374;10.662;2022-10-31T03:08:06;15.00;;;5.30;;
72676;SDS011;60755;51.374;10.662;2022-10-31T03:10:40;12.50;;;5.30;;
72676;SDS011;60755;51.374;10.662;2022-10-31T03:13:12;10.60;;;5.37;;
72676;SDS011;60755;51.374;10.662;2022-10-31T03:15:48;8.97;;;5.70;;
72676;SDS011;60755;51.374;10.662;2022-10-31T03:18:18;8.80;;;5.80;;
72676;SDS011;60755;51.374;10.662;2022-10-31T03:20:54;13.63;;;5.20;;
72676;SDS011;60755;51.374;10.662;2022-10-31T03:23:25;15.27;;;5.87;;
72676;SDS011;60755;51.374;10.662;2022-10-31T03:25:53;16.87;;;6.00;;
72676;SDS011;60755;51.374;10.662;2022-10-31T03:28:22;9.90;;;5.67;;
72676;SDS011;60755;51.374;10.662;2022-10-31T03:30:52;10.27;;;5.63;;
72676;SDS011;60755;51.374;10.662;2022-10-31T03:33:23;10.83;;;5.73;;
72676;SDS011;60755;51.374;10.662;2022-10-31T03:35:53;7.43;;;5.77;;
72676;SDS011;60755;51.374;10.662;2022-10-31T03:38:22;10.80;;;6.13;;
72676;SDS011;60755;51.374;10.662;2022-10-31T03:40:49;11.83;;;6.43;;
72676;SDS011;60755;51.374;10.662;2022-10-31T03:43:21;9.40;;;5.90;;
72676;SDS011;60755;51.374;10.662;2022-10-31T03:45:54;13.63;;;5.83;;
72676;SDS011;60755;51.374;10.662;2022-10-31T03:48:24;12.20;;;6.00;;
72676;SDS011;60755;51.374;10.662;2022-10-31T03:50:57;10.43;;;5.67;;
72676;SDS011;60755;51.374;10.662;2022-10-31T03:53:34;12.37;;;5.40;;
72676;SDS011;60755;51.374;10.662;2022-10-31T03:56:07;13.97;;;5.57;;
72676;SDS011;60755;51.374;10.662;2022-10-31T03:58:38;10.20;;;5.90;;
72676;SDS011;60755;51.374;10.662;2022-10-31T04:01:11;9.20;;;5.97;;
72676;SDS011;60755;51.374;10.662;2022-10-31T04:03:44;11.43;;;5.97;;
72676;SDS011;60755;51.374;10.662;2022-10-31T04:06:12;17.43;;;6.97;;
72676;SDS011;60755;51.374;10.662;2022-10-31T04:08:41;10.43;;;6.47;;
72676;SDS011;60755;51.374;10.662;2022-10-31T04:11:11;15.73;;;5.93;;
72676;SDS011;60755;51.374;10.662;2022-10-31T04:13:39;13.90;;;7.60;;
72676;SDS011;60755;51.374;10.662;2022-10-31T04:16:14;9.83;;;7.37;;
72676;SDS011;60755;51.374;10.662;2022-10-31T04:18:46;11.77;;;8.03;;
72676;SDS011;60755;51.374;10.662;2022-10-31T04:21:12;15.23;;;7.33;;
72676;SDS011;60755;51.374;10.662;2022-10-31T04:23:39;13.90;;;7.17;;
72676;SDS011;60755;51.374;10.662;2022-10-31T04:26:05;13.40;;;7.53;;
72676;SDS011;60755;51.374;10.662;2022-10-31T04:28:32;13.10;;;7.43;;
72676;SDS011;60755;51.374;10.662;2022-10-31T04:30:58;14.50;;;7.60;;
72676;SDS011;60755;51.374;10.662;2022-10-31T04:33:25;15.90;;;7.23;;
72676;SDS011;60755;51.374;10.662;2022-10-31T04:35:53;15.53;;;7.93;;
72676;SDS011;60755;51.374;10.662;2022-10-31T04:38:19;15.40;;;7.80;;
72676;SDS011;60755;51.374;10.662;2022-10-31T04:40:46;15.20;;;8.00;;
72676;SDS011;60755;51.374;10.662;2022-10-31T04:43:12;15.07;;;7.70;;
72676;SDS011;60755;51.374;10.662;2022-10-31T04:45:39;12.87;;;7.77;;
72676;SDS011;60755;51.374;10.662;2022-10-31T04:48:05;17.63;;;8.43;;
72676;SDS011;60755;51.374;10.662;2022-10-31T04:50:32;19.37;;;8.43;;
72676;SDS011;60755;51.374;10.662;2022-10-31T04:53:00;13.20;;;7.60;;
72676;SDS011;60755;51.374;10.662;2022-10-31T04:55:26;15.50;;;7.83;;
72676;SDS011;60755;51.374;10.662;2022-10-31T04:57:53;11.70;;;7.23;;
72676;SDS011;60755;51.374;10.662;2022-10-31T05:00:20;19.37;;;7.90;;
72676;SDS011;60755;51.374;10.662;2022-10-31T05:02:48;13.43;;;7.77;;
72676;SDS011;60755;51.374;10.662;2022-10-31T05:05:19;20.00;;;8.13;;
72676;SDS011;60755;51.374;10.662;2022-10-31T05:07:48;20.30;;;10.03;;
72676;SDS011;60755;51.374;10.662;2022-10-31T05:10:18;22.97;;;11.90;;
72676;SDS011;60755;51.374;10.662;2022-10-31T05:12:47;18.10;;;10.40;;
72676;SDS011;60755;51.374;10.662;2022-10-31T05:15:14;17.50;;;10.80;;
72676;SDS011;60755;51.374;10.662;2022-10-31T05:17:41;20.57;;;10.87;;
72676;SDS011;60755;51.374;10.662;2022-10-31T05:20:12;20.93;;;10.37;;
72676;SDS011;60755;51.374;10.662;2022-10-31T05:22:42;23.10;;;11.80;;
72676;SDS011;60755;51.374;10.662;2022-10-31T05:25:15;24.93;;;12.17;;
72676;SDS011;60755;51.374;10.662;2022-10-31T05:27:44;20.03;;;11.70;;
72676;SDS011;60755;51.374;10.662;2022-10-31T05:30:13;23.30;;;12.93;;
72676;SDS011;60755;51.374;10.662;2022-10-31T05:32:42;29.47;;;12.50;;
72676;SDS011;60755;51.374;10.662;2022-10-31T05:35:13;24.03;;;14.33;;
72676;SDS011;60755;51.374;10.662;2022-10-31T05:37:41;23.97;;;14.00;;
72676;SDS011;60755;51.374;10.662;2022-10-31T05:40:10;27.93;;;14.27;;
72676;SDS011;60755;51.374;10.662;2022-10-31T05:42:40;28.20;;;13.47;;
72676;SDS011;60755;51.374;10.662;2022-10-31T05:45:10;21.73;;;12.90;;
72676;SDS011;60755;51.374;10.662;2022-10-31T05:47:38;25.70;;;14.47;;
72676;SDS011;60755;51.374;10.662;2022-10-31T05:50:06;22.27;;;13.57;;
72676;SDS011;60755;51.374;10.662;2022-10-31T05:52:33;26.63;;;13.93;;
72676;SDS011;60755;51.374;10.662;2022-10-31T05:55:00;26.10;;;13.30;;
72676;SDS011;60755;51.374;10.662;2022-10-31T05:57:26;27.37;;;13.90;;
72676;SDS011;60755;51.374;10.662;2022-10-31T05:59:55;31.47;;;14.67;;
72676;SDS011;60755;51.374;10.662;2022-10-31T06:02:21;30.40;;;14.23;;
72676;SDS011;60755;51.374;10.662;2022-10-31T06:04:48;22.27;;;13.17;;
72676;SDS011;60755;51.374;10.662;2022-10-31T06:07:15;34.40;;;15.03;;
72676;SDS011;60755;51.374;10.662;2022-10-31T06:09:47;27.63;;;14.17;;
72676;SDS011;60755;51.374;10.662;2022-10-31T06:12:13;38.70;;;16.80;;
72676;SDS011;60755;51.374;10.662;2022-10-31T06:14:40;75.90;;;37.03;;
72676;SDS011;60755;51.374;10.662;2022-10-31T06:17:08;100.30;;;51.27;;
72676;SDS011;60755;51.374;10.662;2022-10-31T06:19:34;50.87;;;27.67;;
72676;SDS011;60755;51.374;10.662;2022-10-31T06:22:01;47.70;;;26.80;;
72676;SDS011;60755;51.374;10.662;2022-10-31T06:24:29;40.57;;;21.90;;
72676;SDS011;60755;51.374;10.662;2022-10-31T06:26:56;44.70;;;20.47;;
72676;SDS011;60755;51.374;10.662;2022-10-31T06:29:24;41.67;;;19.77;;
72676;SDS011;60755;51.374;10.662;2022-10-31T06:31:52;34.33;;;18.43;;
72676;SDS011;60755;51.374;10.662;2022-10-31T06:34:20;28.90;;;16.03;;
72676;SDS011;60755;51.374;10.662;2022-10-31T06:36:47;27.53;;;15.40;;
72676;SDS011;60755;51.374;10.662;2022-10-31T06:39:13;32.23;;;16.87;;
72676;SDS011;60755;51.374;10.662;2022-10-31T06:41:40;29.20;;;16.37;;
72676;SDS011;60755;51.374;10.662;2022-10-31T06:44:07;29.10;;;14.70;;
72676;SDS011;60755;51.374;10.662;2022-10-31T06:46:33;30.00;;;15.93;;
72676;SDS011;60755;51.374;10.662;2022-10-31T06:49:01;30.50;;;15.63;;
72676;SDS011;60755;51.374;10.662;2022-10-31T06:51:32;27.23;;;15.37;;
72676;SDS011;60755;51.374;10.662;2022-10-31T06:53:58;33.07;;;14.80;;
72676;SDS011;60755;51.374;10.662;2022-10-31T06:56:24;26.43;;;14.73;;
72676;SDS011;60755;51.374;10.662;2022-10-31T06:58:51;29.07;;;15.30;;
72676;SDS011;60755;51.374;10.662;2022-10-31T07:01:17;24.40;;;15.10;;
72676;SDS011;60755;51.374;10.662;2022-10-31T07:03:44;26.63;;;13.03;;
72676;SDS011;60755;51.374;10.662;2022-10-31T07:06:11;26.57;;;14.97;;
72676;SDS011;60755;51.374;10.662;2022-10-31T07:08:39;26.70;;;16.40;;
72676;SDS011;60755;51.374;10.662;2022-10-31T07:11:05;30.13;;;15.73;;
72676;SDS011;60755;51.374;10.662;2022-10-31T07:13:32;22.77;;;13.60;;
72676;SDS011;60755;51.374;10.662;2022-10-31T07:15:59;24.17;;;14.23;;
72676;SDS011;60755;51.374;10.662;2022-10-31T07:18:27;27.40;;;15.63;;
72676;SDS011;60755;51.374;10.662;2022-10-31T07:20:54;19.00;;;11.73;;
72676;SDS011;60755;51.374;10.662;2022-10-31T07:23:21;23.93;;;12.77;;
72676;SDS011;60755;51.374;10.662;2022-10-31T07:25:53;27.97;;;14.13;;
72676;SDS011;60755;51.374;10.662;2022-10-31T07:28:21;24.90;;;14.00;;
72676;SDS011;60755;51.374;10.662;2022-10-31T07:30:49;28.87;;;13.33;;
72676;SDS011;60755;51.374;10.662;2022-10-31T07:33:15;28.47;;;14.50;;
72676;SDS011;60755;51.374;10.662;2022-10-31T07:35:42;24.37;;;13.53;;
72676;SDS011;60755;51.374;10.662;2022-10-31T07:38:09;31.50;;;14.63;;
72676;SDS011;60755;51.374;10.662;2022-10-31T07:40:36;27.97;;;14.07;;
72676;SDS011;60755;51.374;10.662;2022-10-31T07:43:04;29.40;;;16.90;;
72676;SDS011;60755;51.374;10.662;2022-10-31T07:45:31;26.10;;;14.90;;
72676;SDS011;60755;51.374;10.662;2022-10-31T07:47:58;29.17;;;15.50;;
72676;SDS011;60755;51.374;10.662;2022-10-31T07:50:25;29.50;;;18.43;;
72676;SDS011;60755;51.374;10.662;2022-10-31T07:52:59;36.73;;;20.10;;
72676;SDS011;60755;51.374;10.662;2022-10-31T07:55:26;40.57;;;22.90;;
72676;SDS011;60755;51.374;10.662;2022-10-31T07:57:57;33.03;;;20.43;;
72676;SDS011;60755;51.374;10.662;2022-10-31T08:00:26;31.77;;;19.23;;
72676;SDS011;60755;51.374;10.662;2022-10-31T08:02:59;35.47;;;17.90;;
72676;SDS011;60755;51.374;10.662;2022-10-31T08:05:26;45.58;;;25.73;;
72676;SDS011;60755;51.374;10.662;2022-10-31T08:07:52;34.50;;;19.60;;
72676;SDS011;60755;51.374;10.662;2022-10-31T08:10:19;29.35;;;19.25;;
72676;SDS011;60755;51.374;10.662;2022-10-31T08:12:46;39.90;;;19.93;;
72676;SDS011;60755;51.374;10.662;2022-10-31T08:15:12;26.88;;;15.90;;
72676;SDS011;60755;51.374;10.662;2022-10-31T08:17:40;27.58;;;14.50;;
72676;SDS011;60755;51.374;10.662;2022-10-31T08:20:07;27.02;;;15.50;;
72676;SDS011;60755;51.374;10.662;2022-10-31T08:22:34;27.70;;;15.15;;
72676;SDS011;60755;51.374;10.662;2022-10-31T08:25:01;26.65;;;15.00;;
72676;SDS011;60755;51.374;10.662;2022-10-31T08:27:27;25.67;;;15.68;;
72676;SDS011;60755;51.374;10.662;2022-10-31T08:29:54;26.95;;;15.52;;
72676;SDS011;60755;51.374;10.662;2022-10-31T08:32:20;24.30;;;13.60;;
72676;SDS011;60755;51.374;10.662;2022-10-31T08:34:48;24.05;;;13.57;;
72676;SDS011;60755;51.374;10.662;2022-10-31T08:37:15;20.13;;;11.80;;
72676;SDS011;60755;51.374;10.662;2022-10-31T08:39:44;24.63;;;12.35;;
72676;SDS011;60755;51.374;10.662;2022-10-31T08:42:11;20.02;;;12.13;;
72676;SDS011;60755;51.374;10.662;2022-10-31T08:44:38;25.48;;;13.27;;
72676;SDS011;60755;51.374;10.662;2022-10-31T08:47:04;23.02;;;12.68;;
72676;SDS011;60755;51.374;10.662;2022-10-31T08:49:31;26.85;;;13.48;;
72676;SDS011;60755;51.374;10.662;2022-10-31T08:51:59;24.05;;;13.23;;
72676;SDS011;60755;51.374;10.662;2022-10-31T08:54:25;17.17;;;12.57;;
72676;SDS011;60755;51.374;10.662;2022-10-31T08:56:53;22.60;;;11.50;;
72676;SDS011;60755;51.374;10.662;2022-10-31T08:59:20;22.92;;;13.18;;
72676;SDS011;60755;51.374;10.662;2022-10-31T09:01:46;27.83;;;13.50;;
72676;SDS011;60755;51.374;10.662;2022-10-31T09:04:13;30.52;;;14.00;;
72676;SDS011;60755;51.374;10.662;2022-10-31T09:06:39;26.33;;;13.57;;
72676;SDS011;60755;51.374;10.662;2022-10-31T09:09:07;23.40;;;12.43;;
72676;SDS011;60755;51.374;10.662;2022-10-31T09:11:34;22.10;;;12.68;;
72676;SDS011;60755;51.374;10.662;2022-10-31T09:14:00;20.63;;;12.57;;
72676;SDS011;60755;51.374;10.662;2022-10-31T09:16:27;21.15;;;13.52;;
72676;SDS011;60755;51.374;10.662;2022-10-31T09:18:53;19.27;;;13.07;;
72676;SDS011;60755;51.374;10.662;2022-10-31T09:21:20;27.02;;;14.60;;
72676;SDS011;60755;51.374;10.662;2022-10-31T09:23:46;26.35;;;14.13;;
72676;SDS011;60755;51.374;10.662;2022-10-31T09:26:14;26.83;;;14.05;;
72676;SDS011;60755;51.374;10.662;2022-10-31T09:28:40;22.67;;;14.40;;
72676;SDS011;60755;51.374;10.662;2022-10-31T09:31:07;32.80;;;15.55;;
72676;SDS011;60755;51.374;10.662;2022-10-31T09:33:33;26.90;;;15.52;;
72676;SDS011;60755;51.374;10.662;2022-10-31T09:36:00;30.70;;;16.75;;
72676;SDS011;60755;51.374;10.662;2022-10-31T09:38:34;30.88;;;15.35;;
72676;SDS011;60755;51.374;10.662;2022-10-31T09:41:01;30.88;;;15.40;;
72676;SDS011;60755;51.374;10.662;2022-10-31T09:43:35;30.60;;;15.38;;
72676;SDS011;60755;51.374;10.662;2022-10-31T09:46:10;30.05;;;14.93;;
72676;SDS011;60755;51.374;10.662;2022-10-31T09:48:44;26.38;;;15.55;;
72676;SDS011;60755;51.374;10.662;2022-10-31T09:51:23;28.45;;;15.98;;
72676;SDS011;60755;51.374;10.662;2022-10-31T09:53:56;30.90;;;15.32;;
72676;SDS011;60755;51.374;10.662;2022-10-31T09:56:28;27.45;;;15.15;;
72676;SDS011;60755;51.374;10.662;2022-10-31T09:58:57;33.65;;;17.40;;
72676;SDS011;60755;51.374;10.662;2022-10-31T10:01:28;31.45;;;17.02;;
72676;SDS011;60755;51.374;10.662;2022-10-31T10:04:01;30.17;;;15.13;;
72676;SDS011;60755;51.374;10.662;2022-10-31T10:06:32;37.03;;;17.83;;
72676;SDS011;60755;51.374;10.662;2022-10-31T10:09:03;30.27;;;14.63;;
72676;SDS011;60755;51.374;10.662;2022-10-31T10:11:33;27.02;;;16.15;;
72676;SDS011;60755;51.374;10.662;2022-10-31T10:14:19;25.63;;;15.80;;
72676;SDS011;60755;51.374;10.662;2022-10-31T10:16:58;28.02;;;13.65;;
72676;SDS011;60755;51.374;10.662;2022-10-31T10:19:42;22.95;;;13.00;;
72676;SDS011;60755;51.374;10.662;2022-10-31T10:22:20;26.88;;;13.02;;
72676;SDS011;60755;51.374;10.662;2022-10-31T10:24:59;23.67;;;13.77;;
72676;SDS011;60755;51.374;10.662;2022-10-31T10:27:41;22.20;;;12.05;;
72676;SDS011;60755;51.374;10.662;2022-10-31T10:30:17;20.48;;;12.38;;
72676;SDS011;60755;51.374;10.662;2022-10-31T10:32:46;22.08;;;13.35;;
72676;SDS011;60755;51.374;10.662;2022-10-31T10:35:19;21.05;;;12.32;;
72676;SDS011;60755;51.374;10.662;2022-10-31T10:37:51;22.92;;;13.35;;
72676;SDS011;60755;51.374;10.662;2022-10-31T10:40:23;18.88;;;11.70;;
72676;SDS011;60755;51.374;10.662;2022-10-31T10:42:53;73.78;;;15.50;;
72676;SDS011;60755;51.374;10.662;2022-10-31T10:45:46;65.22;;;14.48;;
72676;SDS011;60755;51.374;10.662;2022-10-31T10:48:38;91.53;;;13.80;;
72676;SDS011;60755;51.374;10.662;2022-10-31T10:51:10;19.23;;;11.10;;
72676;SDS011;60755;51.374;10.662;2022-10-31T10:53:48;30.70;;;11.57;;
72676;SDS011;60755;51.374;10.662;2022-10-31T10:56:40;21.98;;;10.60;;
72676;SDS011;60755;51.374;10.662;2022-10-31T10:59:15;21.73;;;11.48;;
72676;SDS011;60755;51.374;10.662;2022-10-31T11:01:43;21.17;;;11.07;;
72676;SDS011;60755;51.374;10.662;2022-10-31T11:04:14;17.05;;;9.98;;
72676;SDS011;60755;51.374;10.662;2022-10-31T11:09:27;18.90;;;10.85;;
72676;SDS011;60755;51.374;10.662;2022-10-31T11:11:55;25.00;;;11.23;;
72676;SDS011;60755;51.374;10.662;2022-10-31T11:14:22;24.15;;;11.25;;
72676;SDS011;60755;51.374;10.662;2022-10-31T11:16:51;15.10;;;10.45;;
72676;SDS011;60755;51.374;10.662;2022-10-31T11:19:21;16.58;;;10.60;;
72676;SDS011;60755;51.374;10.662;2022-10-31T11:21:50;18.35;;;10.88;;
72676;SDS011;60755;51.374;10.662;2022-10-31T11:24:17;18.90;;;11.23;;
72676;SDS011;60755;51.374;10.662;2022-10-31T11:26:46;20.33;;;10.68;;
72676;SDS011;60755;51.374;10.662;2022-10-31T11:29:16;24.95;;;10.68;;
72676;SDS011;60755;51.374;10.662;2022-10-31T11:31:45;27.50;;;10.80;;
72676;SDS011;60755;51.374;10.662;2022-10-31T11:34:14;21.58;;;10.80;;
72676;SDS011;60755;51.374;10.662;2022-10-31T11:36:46;16.23;;;10.00;;
72676;SDS011;60755;51.374;10.662;2022-10-31T11:39:15;18.38;;;10.10;;
72676;SDS011;60755;51.374;10.662;2022-10-31T11:41:45;21.50;;;10.35;;
72676;SDS011;60755;51.374;10.662;2022-10-31T11:44:13;15.45;;;9.73;;
72676;SDS011;60755;51.374;10.662;2022-10-31T11:46:44;17.08;;;9.68;;
72676;SDS011;60755;51.374;10.662;2022-10-31T11:49:15;20.55;;;10.27;;
72676;SDS011;60755;51.374;10.662;2022-10-31T11:51:46;21.58;;;9.23;;
72676;SDS011;60755;51.374;10.662;2022-10-31T11:54:18;14.32;;;8.63;;
72676;SDS011;60755;51.374;10.662;2022-10-31T11:56:48;16.17;;;9.35;;
72676;SDS011;60755;51.374;10.662;2022-10-31T11:59:17;13.38;;;8.60;;
72676;SDS011;60755;51.374;10.662;2022-10-31T12:01:49;17.92;;;9.50;;
72676;SDS011;60755;51.374;10.662;2022-10-31T12:04:17;16.55;;;8.85;;
72676;SDS011;60755;51.374;10.662;2022-10-31T12:06:44;13.32;;;8.70;;
72676;SDS011;60755;51.374;10.662;2022-10-31T12:09:17;18.55;;;9.63;;
72676;SDS011;60755;51.374;10.662;2022-10-31T12:11:51;31.88;;;9.10;;
72676;SDS011;60755;51.374;10.662;2022-10-31T12:14:30;14.68;;;8.85;;
72676;SDS011;60755;51.374;10.662;2022-10-31T12:17:04;18.20;;;9.30;;
72676;SDS011;60755;51.374;10.662;2022-10-31T12:19:40;15.70;;;8.88;;
72676;SDS011;60755;51.374;10.662;2022-10-31T12:22:13;25.77;;;10.00;;
72676;SDS011;60755;51.374;10.662;2022-10-31T12:25:02;18.05;;;9.02;;
72676;SDS011;60755;51.374;10.662;2022-10-31T12:27:44;16.52;;;8.25;;
72676;SDS011;60755;51.374;10.662;2022-10-31T12:30:23;17.67;;;8.68;;
72676;SDS011;60755;51.374;10.662;2022-10-31T12:33:02;15.90;;;8.57;;
72676;SDS011;60755;51.374;10.662;2022-10-31T12:35:44;18.85;;;8.40;;
72676;SDS011;60755;51.374;10.662;2022-10-31T12:41:19;11.90;;;8.15;;
72676;SDS011;60755;51.374;10.662;2022-10-31T12:43:55;12.43;;;7.93;;
72676;SDS011;60755;51.374;10.662;2022-10-31T12:46:34;18.55;;;8.70;;
72676;SDS011;60755;51.374;10.662;2022-10-31T12:49:27;13.80;;;8.23;;
72676;SDS011;60755;51.374;10.662;2022-10-31T12:52:10;13.90;;;8.13;;
72676;SDS011;60755;51.374;10.662;2022-10-31T12:54:54;11.50;;;7.88;;
72676;SDS011;60755;51.374;10.662;2022-10-31T12:57:31;14.90;;;8.60;;
72676;SDS011;60755;51.374;10.662;2022-10-31T13:00:02;11.85;;;7.80;;
72676;SDS011;60755;51.374;10.662;2022-10-31T13:02:33;12.45;;;8.15;;
72676;SDS011;60755;51.374;10.662;2022-10-31T13:05:05;15.23;;;8.07;;
72676;SDS011;60755;51.374;10.662;2022-10-31T13:07:42;12.82;;;8.77;;
72676;SDS011;60755;51.374;10.662;2022-10-31T13:10:15;14.82;;;8.40;;
72676;SDS011;60755;51.374;10.662;2022-10-31T13:12:46;17.63;;;8.55;;
72676;SDS011;60755;51.374;10.662;2022-10-31T13:15:16;16.52;;;8.43;;
72676;SDS011;60755;51.374;10.662;2022-10-31T13:17:47;15.65;;;8.57;;
72676;SDS011;60755;51.374;10.662;2022-10-31T13:20:18;17.77;;;9.18;;
72676;SDS011;60755;51.374;10.662;2022-10-31T13:22:50;18.08;;;8.95;;
72676;SDS011;60755;51.374;10.662;2022-10-31T13:25:20;17.65;;;9.45;;
72676;SDS011;60755;51.374;10.662;2022-10-31T13:27:51;16.42;;;8.35;;
72676;SDS011;60755;51.374;10.662;2022-10-31T13:30:21;13.93;;;8.20;;
72676;SDS011;60755;51.374;10.662;2022-10-31T13:32:52;13.93;;;8.77;;
72676;SDS011;60755;51.374;10.662;2022-10-31T13:35:26;16.08;;;8.85;;
72676;SDS011;60755;51.374;10.662;2022-10-31T13:38:05;25.35;;;8.18;;
72676;SDS011;60755;51.374;10.662;2022-10-31T13:40:42;14.30;;;8.73;;
72676;SDS011;60755;51.374;10.662;2022-10-31T13:43:17;16.58;;;8.40;;
72676;SDS011;60755;51.374;10.662;2022-10-31T13:45:50;14.57;;;8.93;;
72676;SDS011;60755;51.374;10.662;2022-10-31T13:48:34;15.00;;;9.10;;
72676;SDS011;60755;51.374;10.662;2022-10-31T13:51:04;18.85;;;8.63;;
72676;SDS011;60755;51.374;10.662;2022-10-31T13:53:37;18.75;;;9.82;;
72676;SDS011;60755;51.374;10.662;2022-10-31T13:56:11;21.13;;;11.15;;
72676;SDS011;60755;51.374;10.662;2022-10-31T13:58:41;32.47;;;16.17;;
72676;SDS011;60755;51.374;10.662;2022-10-31T14:01:23;21.95;;;10.90;;
72676;SDS011;60755;51.374;10.662;2022-10-31T14:03:56;18.65;;;9.55;;
72676;SDS011;60755;51.374;10.662;2022-10-31T14:06:36;16.20;;;9.85;;
72676;SDS011;60755;51.374;10.662;2022-10-31T14:09:05;16.35;;;9.75;;
72676;SDS011;60755;51.374;10.662;2022-10-31T14:11:42;15.95;;;9.00;;
72676;SDS011;60755;51.374;10.662;2022-10-31T14:14:12;13.32;;;8.02;;
72676;SDS011;60755;51.374;10.662;2022-10-31T14:16:40;20.73;;;9.45;;
72676;SDS011;60755;51.374;10.662;2022-10-31T14:19:15;15.30;;;8.48;;
72676;SDS011;60755;51.374;10.662;2022-10-31T14:21:44;13.73;;;8.70;;
72676;SDS011;60755;51.374;10.662;2022-10-31T14:24:15;14.40;;;8.60;;
72676;SDS011;60755;51.374;10.662;2022-10-31T14:26:57;14.45;;;8.65;;
72676;SDS011;60755;51.374;10.662;2022-10-31T14:29:26;17.23;;;10.95;;
72676;SDS011;60755;51.374;10.662;2022-10-31T14:31:54;17.10;;;9.50;;
72676;SDS011;60755;51.374;10.662;2022-10-31T14:34:25;14.38;;;8.93;;
72676;SDS011;60755;51.374;10.662;2022-10-31T14:36:58;13.25;;;8.35;;
72676;SDS011;60755;51.374;10.662;2022-10-31T14:39:42;21.23;;;8.52;;
72676;SDS011;60755;51.374;10.662;2022-10-31T14:42:24;12.15;;;8.45;;
72676;SDS011;60755;51.374;10.662;2022-10-31T14:45:10;19.00;;;8.52;;
72676;SDS011;60755;51.374;10.662;2022-10-31T14:47:52;16.27;;;9.10;;